createdAt,value
2017-05-29T00:04:40.728Z,0
2017-05-29T00:14:49.697Z,0
2017-05-29T00:24:58.618Z,0
2017-05-29T00:35:07.614Z,0
2017-05-29T00:45:16.635Z,0
2017-05-29T00:55:25.679Z,0
2017-05-29T01:05:34.754Z,0
2017-05-29T01:15:43.889Z,0
2017-05-29T01:25:53.120Z,0
2017-05-29T01:36:02.336Z,0
2017-05-29T01:46:11.554Z,0
2017-05-29T01:56:20.786Z,0
2017-05-29T02:06:29.981Z,0
2017-05-29T02:16:39.206Z,0
2017-05-29T02:26:48.460Z,0
2017-05-29T02:36:57.693Z,0
2017-05-29T02:47:06.963Z,0
2017-05-29T02:57:16.270Z,0
2017-05-29T03:07:25.635Z,5
2017-05-29T03:17:34.929Z,15
2017-05-29T03:27:44.221Z,25
2017-05-29T03:37:53.553Z,45
2017-05-29T03:48:02.827Z,70
2017-05-29T03:58:12.110Z,100
2017-05-29T04:08:21.385Z,140
2017-05-29T04:18:30.624Z,185
2017-05-29T04:28:39.705Z,220
2017-05-29T04:38:48.694Z,250
2017-05-29T04:48:57.564Z,280
2017-05-29T04:59:06.343Z,315
2017-05-29T05:09:15.041Z,335
2017-05-29T05:19:23.658Z,405
2017-05-29T05:29:32.133Z,520
2017-05-29T05:39:40.453Z,600
2017-05-29T05:49:48.649Z,635
2017-05-29T05:59:56.721Z,690
2017-05-29T06:10:04.773Z,755
2017-05-29T06:20:12.904Z,850
2017-05-29T06:30:20.936Z,975
2017-05-29T06:40:28.984Z,965
2017-05-29T06:50:36.975Z,1100
2017-05-29T07:00:44.895Z,1170
2017-05-29T07:10:52.741Z,1265
2017-05-29T07:21:00.498Z,1465
2017-05-29T07:31:08.129Z,1625
2017-05-29T07:41:15.641Z,1720
2017-05-29T07:51:23.047Z,1765
2017-05-29T08:01:30.307Z,1815
2017-05-29T08:11:37.469Z,1990
2017-05-29T08:21:44.506Z,2230
2017-05-29T08:31:51.480Z,2195
2017-05-29T08:41:58.481Z,1800
2017-05-29T08:52:05.486Z,2360
2017-05-29T09:02:12.466Z,2130
2017-05-29T09:12:19.481Z,1900
2017-05-29T09:22:26.535Z,2765
2017-05-29T09:32:33.465Z,2915
2017-05-29T09:42:40.225Z,1870
2017-05-29T09:52:47.022Z,2395
2017-05-29T10:02:53.974Z,2305
2017-05-29T10:13:00.962Z,3285
2017-05-29T10:23:07.769Z,3220
2017-05-29T10:33:14.438Z,2545
2017-05-29T10:43:21.222Z,3155
2017-05-29T10:53:28.004Z,3180
2017-05-29T11:03:34.702Z,2775
2017-05-29T11:13:41.441Z,3440
2017-05-29T11:23:48.089Z,3670
2017-05-29T11:33:54.691Z,3620
2017-05-29T11:44:01.286Z,3575
2017-05-29T11:54:07.844Z,3635
2017-05-29T12:04:14.407Z,3160
2017-05-29T12:14:20.919Z,3240
2017-05-29T12:24:27.393Z,2760
2017-05-29T12:34:33.818Z,3080
2017-05-29T12:44:40.095Z,2850
2017-05-29T12:54:46.337Z,2855
2017-05-29T13:04:52.545Z,2555
2017-05-29T13:14:58.874Z,2480
2017-05-29T13:25:04.936Z,2055
2017-05-29T13:35:11.100Z,2510
2017-05-29T13:45:17.289Z,1920
2017-05-29T13:55:23.491Z,2355
2017-05-29T14:05:29.646Z,2405
2017-05-29T14:15:35.734Z,2250
2017-05-29T14:25:41.762Z,2055
2017-05-29T14:35:47.715Z,2165
2017-05-29T14:45:53.630Z,2085
2017-05-29T14:55:59.487Z,2085
2017-05-29T15:06:05.418Z,815
2017-05-29T15:16:11.561Z,715
2017-05-29T15:26:17.899Z,1465
2017-05-29T15:36:24.323Z,1570
2017-05-29T15:46:30.550Z,1420
2017-05-29T15:56:36.640Z,1295
2017-05-29T16:06:42.568Z,1250
2017-05-29T16:16:48.469Z,1155
2017-05-29T16:26:54.363Z,975
2017-05-29T16:37:00.441Z,935
2017-05-29T16:47:06.546Z,635
2017-05-29T16:57:12.748Z,525
2017-05-29T17:07:19.039Z,495
2017-05-29T17:17:25.450Z,395
2017-05-29T17:27:32.100Z,350
2017-05-29T17:37:39.013Z,290
2017-05-29T17:47:46.051Z,190
2017-05-29T17:57:53.319Z,165
2017-05-29T18:08:00.703Z,150
2017-05-29T18:18:08.189Z,155
2017-05-29T18:28:15.698Z,155
2017-05-29T18:38:23.249Z,135
2017-05-29T18:48:30.877Z,90
2017-05-29T18:58:38.634Z,70
2017-05-29T19:08:46.487Z,50
2017-05-29T19:18:54.394Z,35
2017-05-29T19:29:02.280Z,15
2017-05-29T19:39:10.259Z,5
2017-05-29T19:49:18.276Z,0
2017-05-29T19:59:26.369Z,0
2017-05-29T20:09:34.522Z,0
2017-05-29T20:19:42.652Z,0
2017-05-29T20:29:50.754Z,0
2017-05-29T20:39:58.847Z,0
2017-05-29T20:50:06.936Z,0
2017-05-29T21:00:15.015Z,0
2017-05-29T21:10:23.136Z,0
2017-05-29T21:20:31.269Z,0
2017-05-29T21:30:39.455Z,0
2017-05-29T21:40:47.666Z,0
2017-05-29T21:50:55.991Z,0
2017-05-29T22:01:04.414Z,0
2017-05-29T22:11:12.748Z,0
2017-05-29T22:21:21.111Z,0
2017-05-29T22:31:29.516Z,0
2017-05-29T22:41:37.915Z,0
2017-05-29T22:51:46.382Z,0
2017-05-29T23:01:54.847Z,0
2017-05-29T23:12:03.349Z,0
2017-05-29T23:22:11.877Z,0
2017-05-29T23:32:20.513Z,0
2017-05-29T23:42:29.140Z,0
2017-05-29T23:52:37.809Z,0
